Lovell Field
KCHA : now visible

Airfield :











YOU CAN JOIN US ON...

 
LOGIN :

Register | Disclaimer

   EN    FR    IT 

 









Legend :    VFR   Marginal VFR   IFR   Intensive IFR   Very Intensive IFR
Visi :
Ceiling :
>= 8 km
>= 3000ft
5 to 8 km
1000 to 3000 ft
1500m to 5 km
500 to 1000 ft
800 to 1500m
200 to 500 ft
< 800m
< 200 ft
Symbols :   Thunderstorms  Fog  Heavy snow  Heavy precipitations  Wind > 20 kt






- Airport Elevation : 683 ft
- IATA code : CHA


KCHA - Lovell Field

CURRENT METAR :
  • 291853Z 00000KT 7SM SCT027 BKN032 OVC050 08/06 A3020 RMK AO2 RAE48 SLP227 P0001 T00830056

EXPIRED METARs :
  • 291753Z 00000KT 6SM -RA BR BKN041 BKN047 OVC055 08/06 A3023 RMK AO2 SLP239 P0003 60009 T00830056 10094 20078 58006
  • 291653Z 12003KT 6SM -RA BR BKN047 BKN055 OVC090 08/05 A3027 RMK AO2 SLP249 P0002 T00780050
  • 291553Z 00000KT 3SM -RA BR BKN047 BKN055 OVC090 08/04 A3027 RMK AO2 SLP250 P0001 T00830044

TAF KCHA
Valid from the 29 at 18:00 until the 30 at 18:00 UTC


291720Z 2918/3018 VRB04KT 5SM RA OVC035
FM292000 17004KT 4SM -RA OVC025
FM292200 17004KT 4SM -RA OVC008
FM300100 VRB03KT 3SM BR OVC004
FM301300 VRB04KT 4SM BR OVC009
KZTL FIR / North America



MET'MAP, your aeronautical weather chart ! - Copyright ORBIFLY December 2007 - Disclaimer

ORBIFLY MET'MAP TEAM :

Programming & Development : Alexandra Zaïnal
Original concept : Baudouin d'Aumeries
Technical & hardware support : Manuel Goepfert
Assistance : Marc-Olivier Méhu




SOURCES & CREDITS :

   NOAA       Earth
Advisory